sensor_id;sensor_type;location;lat;lon;timestamp;P1;durP1;ratioP1;P2;durP2;ratioP2
35602;SDS011;21725;50.836;4.368;2023-03-04T00:00:45;17.50;;;9.48;;
35602;SDS011;21725;50.836;4.368;2023-03-04T00:03:46;24.30;;;12.48;;
35602;SDS011;21725;50.836;4.368;2023-03-04T00:06:47;18.60;;;9.55;;
35602;SDS011;21725;50.836;4.368;2023-03-04T00:09:48;14.00;;;8.68;;
35602;SDS011;21725;50.836;4.368;2023-03-04T00:12:49;20.83;;;9.57;;
35602;SDS011;21725;50.836;4.368;2023-03-04T00:15:49;28.73;;;9.35;;
35602;SDS011;21725;50.836;4.368;2023-03-04T00:18:50;15.93;;;9.02;;
35602;SDS011;21725;50.836;4.368;2023-03-04T00:21:52;17.85;;;8.18;;
35602;SDS011;21725;50.836;4.368;2023-03-04T00:24:52;18.05;;;7.13;;
35602;SDS011;21725;50.836;4.368;2023-03-04T00:27:53;23.45;;;8.95;;
35602;SDS011;21725;50.836;4.368;2023-03-04T00:30:54;22.58;;;8.18;;
35602;SDS011;21725;50.836;4.368;2023-03-04T00:33:55;15.88;;;7.47;;
35602;SDS011;21725;50.836;4.368;2023-03-04T00:36:55;19.83;;;9.00;;
35602;SDS011;21725;50.836;4.368;2023-03-04T00:40:00;16.55;;;8.57;;
35602;SDS011;21725;50.836;4.368;2023-03-04T00:43:01;26.27;;;8.55;;
35602;SDS011;21725;50.836;4.368;2023-03-04T00:46:02;21.23;;;10.75;;
35602;SDS011;21725;50.836;4.368;2023-03-04T00:49:03;19.52;;;10.60;;
35602;SDS011;21725;50.836;4.368;2023-03-04T00:52:04;13.15;;;8.18;;
35602;SDS011;21725;50.836;4.368;2023-03-04T00:55:05;17.77;;;8.10;;
35602;SDS011;21725;50.836;4.368;2023-03-04T00:58:06;17.40;;;8.32;;
35602;SDS011;21725;50.836;4.368;2023-03-04T01:01:08;26.77;;;9.82;;
35602;SDS011;21725;50.836;4.368;2023-03-04T01:04:09;30.77;;;9.32;;
35602;SDS011;21725;50.836;4.368;2023-03-04T01:07:10;25.65;;;8.13;;
35602;SDS011;21725;50.836;4.368;2023-03-04T01:10:14;20.85;;;8.57;;
35602;SDS011;21725;50.836;4.368;2023-03-04T01:13:15;20.25;;;8.05;;
35602;SDS011;21725;50.836;4.368;2023-03-04T01:16:15;19.52;;;7.68;;
35602;SDS011;21725;50.836;4.368;2023-03-04T01:19:16;18.95;;;8.10;;
35602;SDS011;21725;50.836;4.368;2023-03-04T01:22:17;22.63;;;8.27;;
35602;SDS011;21725;50.836;4.368;2023-03-04T01:25:18;21.98;;;7.93;;
35602;SDS011;21725;50.836;4.368;2023-03-04T01:28:19;22.65;;;8.18;;
35602;SDS011;21725;50.836;4.368;2023-03-04T01:31:20;19.52;;;7.30;;
35602;SDS011;21725;50.836;4.368;2023-03-04T01:34:20;18.10;;;8.40;;
35602;SDS011;21725;50.836;4.368;2023-03-04T01:37:21;24.20;;;9.13;;
35602;SDS011;21725;50.836;4.368;2023-03-04T01:40:22;20.33;;;6.50;;
35602;SDS011;21725;50.836;4.368;2023-03-04T01:43:26;24.23;;;7.43;;
35602;SDS011;21725;50.836;4.368;2023-03-04T01:46:30;19.55;;;8.65;;
35602;SDS011;21725;50.836;4.368;2023-03-04T01:49:32;16.77;;;7.15;;
35602;SDS011;21725;50.836;4.368;2023-03-04T01:52:33;20.60;;;7.78;;
35602;SDS011;21725;50.836;4.368;2023-03-04T01:55:33;16.73;;;7.38;;
35602;SDS011;21725;50.836;4.368;2023-03-04T01:58:34;19.48;;;7.05;;
35602;SDS011;21725;50.836;4.368;2023-03-04T02:01:36;21.58;;;7.10;;
35602;SDS011;21725;50.836;4.368;2023-03-04T02:04:37;19.83;;;6.75;;
35602;SDS011;21725;50.836;4.368;2023-03-04T02:07:40;20.83;;;6.95;;
35602;SDS011;21725;50.836;4.368;2023-03-04T02:10:41;21.75;;;7.72;;
35602;SDS011;21725;50.836;4.368;2023-03-04T02:13:43;16.85;;;6.40;;
35602;SDS011;21725;50.836;4.368;2023-03-04T02:16:44;16.35;;;6.45;;
35602;SDS011;21725;50.836;4.368;2023-03-04T02:19:55;32.65;;;6.88;;
35602;SDS011;21725;50.836;4.368;2023-03-04T02:23:24;21.67;;;7.13;;
35602;SDS011;21725;50.836;4.368;2023-03-04T02:26:44;13.25;;;5.97;;
35602;SDS011;21725;50.836;4.368;2023-03-04T02:29:46;21.00;;;6.72;;
35602;SDS011;21725;50.836;4.368;2023-03-04T02:32:46;18.65;;;6.63;;
35602;SDS011;21725;50.836;4.368;2023-03-04T02:35:47;16.70;;;6.20;;
35602;SDS011;21725;50.836;4.368;2023-03-04T02:38:49;19.85;;;7.95;;
35602;SDS011;21725;50.836;4.368;2023-03-04T02:41:52;16.52;;;7.65;;
35602;SDS011;21725;50.836;4.368;2023-03-04T02:45:00;16.05;;;6.50;;
35602;SDS011;21725;50.836;4.368;2023-03-04T02:48:01;19.30;;;6.53;;
35602;SDS011;21725;50.836;4.368;2023-03-04T02:51:02;22.02;;;7.22;;
35602;SDS011;21725;50.836;4.368;2023-03-04T02:54:03;20.83;;;8.20;;
35602;SDS011;21725;50.836;4.368;2023-03-04T02:57:05;18.02;;;6.93;;
35602;SDS011;21725;50.836;4.368;2023-03-04T03:00:08;17.58;;;7.10;;
35602;SDS011;21725;50.836;4.368;2023-03-04T03:03:10;25.60;;;6.97;;
35602;SDS011;21725;50.836;4.368;2023-03-04T03:06:10;14.82;;;7.45;;
35602;SDS011;21725;50.836;4.368;2023-03-04T03:09:11;16.73;;;7.57;;
35602;SDS011;21725;50.836;4.368;2023-03-04T03:12:12;22.70;;;8.75;;
35602;SDS011;21725;50.836;4.368;2023-03-04T03:15:13;20.92;;;8.60;;
35602;SDS011;21725;50.836;4.368;2023-03-04T03:18:15;21.98;;;7.13;;
35602;SDS011;21725;50.836;4.368;2023-03-04T03:21:16;26.33;;;8.70;;
35602;SDS011;21725;50.836;4.368;2023-03-04T03:24:16;17.85;;;7.30;;
35602;SDS011;21725;50.836;4.368;2023-03-04T03:27:19;16.92;;;8.30;;
35602;SDS011;21725;50.836;4.368;2023-03-04T03:30:19;18.42;;;7.03;;
35602;SDS011;21725;50.836;4.368;2023-03-04T03:33:20;14.27;;;7.32;;
35602;SDS011;21725;50.836;4.368;2023-03-04T03:36:21;19.60;;;7.60;;
35602;SDS011;21725;50.836;4.368;2023-03-04T03:39:22;22.67;;;7.13;;
35602;SDS011;21725;50.836;4.368;2023-03-04T03:42:23;26.27;;;9.98;;
35602;SDS011;21725;50.836;4.368;2023-03-04T03:45:23;21.65;;;8.98;;
35602;SDS011;21725;50.836;4.368;2023-03-04T03:48:24;25.80;;;7.78;;
35602;SDS011;21725;50.836;4.368;2023-03-04T03:51:25;22.08;;;8.48;;
35602;SDS011;21725;50.836;4.368;2023-03-04T03:54:26;20.15;;;8.73;;
35602;SDS011;21725;50.836;4.368;2023-03-04T03:57:27;21.73;;;8.32;;
35602;SDS011;21725;50.836;4.368;2023-03-04T04:00:29;25.20;;;8.30;;
35602;SDS011;21725;50.836;4.368;2023-03-04T04:03:30;26.02;;;7.60;;
35602;SDS011;21725;50.836;4.368;2023-03-04T04:06:30;13.75;;;7.80;;
35602;SDS011;21725;50.836;4.368;2023-03-04T04:09:31;20.25;;;8.70;;
35602;SDS011;21725;50.836;4.368;2023-03-04T04:12:32;24.92;;;9.43;;
35602;SDS011;21725;50.836;4.368;2023-03-04T04:15:33;24.38;;;9.40;;
35602;SDS011;21725;50.836;4.368;2023-03-04T04:18:33;23.33;;;9.18;;
35602;SDS011;21725;50.836;4.368;2023-03-04T04:21:34;17.20;;;8.60;;
35602;SDS011;21725;50.836;4.368;2023-03-04T04:24:35;17.35;;;8.65;;
35602;SDS011;21725;50.836;4.368;2023-03-04T04:27:36;20.50;;;10.55;;
35602;SDS011;21725;50.836;4.368;2023-03-04T04:30:36;24.25;;;10.40;;
35602;SDS011;21725;50.836;4.368;2023-03-04T04:33:38;21.77;;;9.45;;
35602;SDS011;21725;50.836;4.368;2023-03-04T04:36:38;24.13;;;10.25;;
35602;SDS011;21725;50.836;4.368;2023-03-04T04:39:39;17.98;;;9.70;;
35602;SDS011;21725;50.836;4.368;2023-03-04T04:42:40;34.58;;;10.60;;
35602;SDS011;21725;50.836;4.368;2023-03-04T04:45:41;21.20;;;9.32;;
35602;SDS011;21725;50.836;4.368;2023-03-04T04:48:41;19.70;;;9.05;;
35602;SDS011;21725;50.836;4.368;2023-03-04T04:51:42;21.92;;;10.95;;
35602;SDS011;21725;50.836;4.368;2023-03-04T04:54:43;28.58;;;9.90;;
35602;SDS011;21725;50.836;4.368;2023-03-04T04:57:44;19.83;;;9.57;;
35602;SDS011;21725;50.836;4.368;2023-03-04T05:24:13;28.20;;;9.05;;
35602;SDS011;21725;50.836;4.368;2023-03-04T05:27:14;18.17;;;9.68;;
35602;SDS011;21725;50.836;4.368;2023-03-04T05:30:14;23.02;;;9.88;;
35602;SDS011;21725;50.836;4.368;2023-03-04T05:33:15;24.95;;;11.13;;
35602;SDS011;21725;50.836;4.368;2023-03-04T05:36:17;22.85;;;10.20;;
35602;SDS011;21725;50.836;4.368;2023-03-04T05:39:18;23.42;;;8.85;;
35602;SDS011;21725;50.836;4.368;2023-03-04T05:42:19;21.73;;;8.65;;
35602;SDS011;21725;50.836;4.368;2023-03-04T05:45:19;19.35;;;7.95;;
35602;SDS011;21725;50.836;4.368;2023-03-04T05:48:20;19.45;;;9.32;;
35602;SDS011;21725;50.836;4.368;2023-03-04T05:51:21;17.73;;;8.02;;
35602;SDS011;21725;50.836;4.368;2023-03-04T05:54:22;21.98;;;8.90;;
35602;SDS011;21725;50.836;4.368;2023-03-04T05:57:23;18.25;;;7.75;;
35602;SDS011;21725;50.836;4.368;2023-03-04T06:00:24;20.83;;;8.00;;
35602;SDS011;21725;50.836;4.368;2023-03-04T06:03:25;20.85;;;7.72;;
35602;SDS011;21725;50.836;4.368;2023-03-04T06:06:26;16.65;;;7.15;;
35602;SDS011;21725;50.836;4.368;2023-03-04T06:09:27;18.98;;;7.90;;
35602;SDS011;21725;50.836;4.368;2023-03-04T06:12:30;19.60;;;8.23;;
35602;SDS011;21725;50.836;4.368;2023-03-04T06:15:31;20.17;;;6.95;;
35602;SDS011;21725;50.836;4.368;2023-03-04T06:18:33;23.50;;;6.55;;
35602;SDS011;21725;50.836;4.368;2023-03-04T06:21:33;25.42;;;7.05;;
35602;SDS011;21725;50.836;4.368;2023-03-04T06:24:34;10.80;;;5.88;;
35602;SDS011;21725;50.836;4.368;2023-03-04T06:27:35;17.50;;;6.80;;
35602;SDS011;21725;50.836;4.368;2023-03-04T06:30:36;14.23;;;4.95;;
35602;SDS011;21725;50.836;4.368;2023-03-04T06:33:37;14.38;;;6.13;;
35602;SDS011;21725;50.836;4.368;2023-03-04T06:36:37;21.05;;;5.85;;
35602;SDS011;21725;50.836;4.368;2023-03-04T06:39:38;14.50;;;5.65;;
35602;SDS011;21725;50.836;4.368;2023-03-04T06:42:39;13.75;;;4.55;;
35602;SDS011;21725;50.836;4.368;2023-03-04T06:45:40;12.73;;;4.78;;
35602;SDS011;21725;50.836;4.368;2023-03-04T06:48:41;14.63;;;3.92;;
35602;SDS011;21725;50.836;4.368;2023-03-04T06:51:42;17.20;;;4.88;;
35602;SDS011;21725;50.836;4.368;2023-03-04T06:54:42;19.23;;;4.70;;
35602;SDS011;21725;50.836;4.368;2023-03-04T06:57:43;17.42;;;4.53;;
35602;SDS011;21725;50.836;4.368;2023-03-04T07:00:44;20.77;;;5.38;;
35602;SDS011;21725;50.836;4.368;2023-03-04T07:03:45;15.80;;;5.57;;
35602;SDS011;21725;50.836;4.368;2023-03-04T07:06:47;11.43;;;4.10;;
35602;SDS011;21725;50.836;4.368;2023-03-04T07:09:48;17.60;;;6.53;;
35602;SDS011;21725;50.836;4.368;2023-03-04T07:12:49;18.48;;;6.18;;
35602;SDS011;21725;50.836;4.368;2023-03-04T07:15:49;15.20;;;5.80;;
35602;SDS011;21725;50.836;4.368;2023-03-04T07:18:50;22.40;;;6.40;;
35602;SDS011;21725;50.836;4.368;2023-03-04T07:21:51;11.60;;;4.22;;
35602;SDS011;21725;50.836;4.368;2023-03-04T07:24:52;11.80;;;4.75;;
35602;SDS011;21725;50.836;4.368;2023-03-04T07:27:53;16.08;;;5.03;;
35602;SDS011;21725;50.836;4.368;2023-03-04T07:30:53;15.93;;;5.07;;
35602;SDS011;21725;50.836;4.368;2023-03-04T07:33:55;14.80;;;5.10;;
35602;SDS011;21725;50.836;4.368;2023-03-04T07:36:58;14.90;;;6.15;;
35602;SDS011;21725;50.836;4.368;2023-03-04T07:39:58;21.77;;;7.50;;
35602;SDS011;21725;50.836;4.368;2023-03-04T07:42:59;19.35;;;10.73;;
35602;SDS011;21725;50.836;4.368;2023-03-04T07:46:00;19.67;;;8.60;;
35602;SDS011;21725;50.836;4.368;2023-03-04T07:49:01;18.95;;;9.48;;
35602;SDS011;21725;50.836;4.368;2023-03-04T07:52:03;18.55;;;7.65;;
35602;SDS011;21725;50.836;4.368;2023-03-04T07:55:04;18.42;;;8.32;;
35602;SDS011;21725;50.836;4.368;2023-03-04T07:58:05;15.50;;;7.50;;
35602;SDS011;21725;50.836;4.368;2023-03-04T08:01:14;17.58;;;6.57;;
35602;SDS011;21725;50.836;4.368;2023-03-04T08:04:17;13.45;;;5.22;;
35602;SDS011;21725;50.836;4.368;2023-03-04T08:07:17;20.27;;;11.23;;
35602;SDS011;21725;50.836;4.368;2023-03-04T08:10:18;14.35;;;7.18;;
35602;SDS011;21725;50.836;4.368;2023-03-04T08:13:19;12.20;;;6.32;;
35602;SDS011;21725;50.836;4.368;2023-03-04T08:16:20;12.75;;;5.32;;
35602;SDS011;21725;50.836;4.368;2023-03-04T08:19:22;9.60;;;5.35;;
35602;SDS011;21725;50.836;4.368;2023-03-04T08:22:23;15.98;;;5.30;;
35602;SDS011;21725;50.836;4.368;2023-03-04T08:25:23;14.43;;;6.45;;
35602;SDS011;21725;50.836;4.368;2023-03-04T08:28:26;15.77;;;5.18;;
35602;SDS011;21725;50.836;4.368;2023-03-04T08:31:27;10.68;;;4.70;;
35602;SDS011;21725;50.836;4.368;2023-03-04T08:34:28;13.43;;;5.30;;
35602;SDS011;21725;50.836;4.368;2023-03-04T08:37:32;26.40;;;13.15;;
35602;SDS011;21725;50.836;4.368;2023-03-04T08:40:33;14.35;;;6.78;;
35602;SDS011;21725;50.836;4.368;2023-03-04T08:43:39;17.60;;;7.55;;
35602;SDS011;21725;50.836;4.368;2023-03-04T08:46:41;15.88;;;6.50;;
35602;SDS011;21725;50.836;4.368;2023-03-04T08:49:44;20.33;;;6.28;;
35602;SDS011;21725;50.836;4.368;2023-03-04T08:52:45;14.52;;;5.65;;
35602;SDS011;21725;50.836;4.368;2023-03-04T08:55:46;15.82;;;6.50;;
35602;SDS011;21725;50.836;4.368;2023-03-04T08:58:47;16.75;;;5.70;;
35602;SDS011;21725;50.836;4.368;2023-03-04T09:01:48;15.05;;;5.22;;
35602;SDS011;21725;50.836;4.368;2023-03-04T09:04:48;19.25;;;6.88;;
35602;SDS011;21725;50.836;4.368;2023-03-04T09:07:49;25.17;;;13.10;;
35602;SDS011;21725;50.836;4.368;2023-03-04T09:10:51;26.58;;;12.52;;
35602;SDS011;21725;50.836;4.368;2023-03-04T09:13:53;21.35;;;10.52;;
35602;SDS011;21725;50.836;4.368;2023-03-04T09:16:53;17.90;;;8.25;;
35602;SDS011;21725;50.836;4.368;2023-03-04T09:19:54;17.35;;;6.00;;
35602;SDS011;21725;50.836;4.368;2023-03-04T09:22:55;16.58;;;5.82;;
35602;SDS011;21725;50.836;4.368;2023-03-04T09:25:56;13.80;;;4.72;;
35602;SDS011;21725;50.836;4.368;2023-03-04T09:28:58;14.40;;;5.03;;
35602;SDS011;21725;50.836;4.368;2023-03-04T09:32:00;16.63;;;5.47;;
35602;SDS011;21725;50.836;4.368;2023-03-04T09:35:00;14.18;;;5.15;;
35602;SDS011;21725;50.836;4.368;2023-03-04T09:38:01;14.00;;;4.93;;
35602;SDS011;21725;50.836;4.368;2023-03-04T09:41:03;15.73;;;4.88;;
35602;SDS011;21725;50.836;4.368;2023-03-04T09:44:20;11.73;;;5.70;;
35602;SDS011;21725;50.836;4.368;2023-03-04T09:47:24;17.50;;;5.80;;
35602;SDS011;21725;50.836;4.368;2023-03-04T09:50:26;15.68;;;5.28;;
35602;SDS011;21725;50.836;4.368;2023-03-04T09:56:56;20.52;;;11.13;;
35602;SDS011;21725;50.836;4.368;2023-03-04T10:03:15;11.20;;;5.65;;
35602;SDS011;21725;50.836;4.368;2023-03-04T10:06:19;18.17;;;5.45;;
35602;SDS011;21725;50.836;4.368;2023-03-04T10:09:25;14.88;;;5.18;;
35602;SDS011;21725;50.836;4.368;2023-03-04T10:12:32;36.17;;;17.85;;
35602;SDS011;21725;50.836;4.368;2023-03-04T10:15:37;17.20;;;9.23;;
35602;SDS011;21725;50.836;4.368;2023-03-04T10:18:43;16.25;;;6.80;;
35602;SDS011;21725;50.836;4.368;2023-03-04T10:21:49;14.13;;;6.00;;
35602;SDS011;21725;50.836;4.368;2023-03-04T10:24:52;11.45;;;5.82;;
35602;SDS011;21725;50.836;4.368;2023-03-04T10:28:15;13.85;;;6.55;;
35602;SDS011;21725;50.836;4.368;2023-03-04T10:31:26;17.30;;;6.15;;
35602;SDS011;21725;50.836;4.368;2023-03-04T10:34:37;17.38;;;7.10;;
35602;SDS011;21725;50.836;4.368;2023-03-04T10:37:50;41.97;;;22.05;;
35602;SDS011;21725;50.836;4.368;2023-03-04T10:40:51;17.98;;;7.18;;
35602;SDS011;21725;50.836;4.368;2023-03-04T10:47:02;14.10;;;5.43;;
35602;SDS011;21725;50.836;4.368;2023-03-04T10:50:12;25.25;;;12.27;;
35602;SDS011;21725;50.836;4.368;2023-03-04T10:53:29;10.18;;;5.30;;
35602;SDS011;21725;50.836;4.368;2023-03-04T11:22:30;15.40;;;6.57;;
35602;SDS011;21725;50.836;4.368;2023-03-04T11:25:32;16.35;;;6.47;;
35602;SDS011;21725;50.836;4.368;2023-03-04T11:31:52;28.17;;;12.15;;
35602;SDS011;21725;50.836;4.368;2023-03-04T11:35:00;22.73;;;11.60;;
35602;SDS011;21725;50.836;4.368;2023-03-04T11:38:18;19.38;;;8.68;;
35602;SDS011;21725;50.836;4.368;2023-03-04T11:41:37;15.45;;;6.10;;
35602;SDS011;21725;50.836;4.368;2023-03-04T11:44:42;20.60;;;9.15;;
35602;SDS011;21725;50.836;4.368;2023-03-04T11:47:46;15.35;;;7.22;;
35602;SDS011;21725;50.836;4.368;2023-03-04T12:04:19;14.95;;;7.78;;
35602;SDS011;21725;50.836;4.368;2023-03-04T12:11:07;13.57;;;6.43;;
35602;SDS011;21725;50.836;4.368;2023-03-04T12:17:35;11.38;;;5.25;;
35602;SDS011;21725;50.836;4.368;2023-03-04T12:20:56;11.15;;;4.75;;
35602;SDS011;21725;50.836;4.368;2023-03-04T12:27:26;7.30;;;4.18;;
35602;SDS011;21725;50.836;4.368;2023-03-04T12:30:44;11.98;;;4.22;;
35602;SDS011;21725;50.836;4.368;2023-03-04T12:37:37;10.95;;;5.10;;
35602;SDS011;21725;50.836;4.368;2023-03-04T12:41:18;10.63;;;4.90;;
35602;SDS011;21725;50.836;4.368;2023-03-04T12:57:38;10.07;;;3.85;;
35602;SDS011;21725;50.836;4.368;2023-03-04T13:04:04;9.82;;;4.10;;
35602;SDS011;21725;50.836;4.368;2023-03-04T13:10:38;7.10;;;3.42;;
35602;SDS011;21725;50.836;4.368;2023-03-04T13:13:39;9.20;;;3.30;;
35602;SDS011;21725;50.836;4.368;2023-03-04T13:19:48;13.48;;;3.50;;
35602;SDS011;21725;50.836;4.368;2023-03-04T13:26:17;8.98;;;3.55;;
35602;SDS011;21725;50.836;4.368;2023-03-04T13:32:34;9.10;;;4.00;;
35602;SDS011;21725;50.836;4.368;2023-03-04T13:42:04;16.80;;;4.15;;
35602;SDS011;21725;50.836;4.368;2023-03-04T13:45:37;7.22;;;2.75;;
35602;SDS011;21725;50.836;4.368;2023-03-04T13:48:39;6.93;;;3.75;;
35602;SDS011;21725;50.836;4.368;2023-03-04T13:51:40;8.85;;;3.90;;
35602;SDS011;21725;50.836;4.368;2023-03-04T13:54:44;8.38;;;4.32;;
35602;SDS011;21725;50.836;4.368;2023-03-04T13:57:48;13.10;;;4.28;;
35602;SDS011;21725;50.836;4.368;2023-03-04T14:00:51;6.00;;;3.38;;
35602;SDS011;21725;50.836;4.368;2023-03-04T14:03:53;7.65;;;3.22;;
35602;SDS011;21725;50.836;4.368;2023-03-04T14:06:55;19.50;;;6.20;;
35602;SDS011;21725;50.836;4.368;2023-03-04T14:10:01;9.30;;;3.85;;
35602;SDS011;21725;50.836;4.368;2023-03-04T14:13:07;12.85;;;4.05;;
35602;SDS011;21725;50.836;4.368;2023-03-04T14:16:08;6.80;;;3.53;;
35602;SDS011;21725;50.836;4.368;2023-03-04T14:19:14;5.70;;;2.75;;
35602;SDS011;21725;50.836;4.368;2023-03-04T14:22:51;4.07;;;2.50;;
35602;SDS011;21725;50.836;4.368;2023-03-04T14:26:04;5.97;;;3.20;;
35602;SDS011;21725;50.836;4.368;2023-03-04T14:29:25;8.70;;;3.60;;
35602;SDS011;21725;50.836;4.368;2023-03-04T14:32:28;6.80;;;3.85;;
35602;SDS011;21725;50.836;4.368;2023-03-04T14:35:30;14.00;;;8.55;;
35602;SDS011;21725;50.836;4.368;2023-03-04T14:38:34;20.27;;;8.32;;
35602;SDS011;21725;50.836;4.368;2023-03-04T14:41:40;15.03;;;7.93;;
35602;SDS011;21725;50.836;4.368;2023-03-04T14:44:47;8.63;;;5.47;;
35602;SDS011;21725;50.836;4.368;2023-03-04T14:47:56;9.73;;;5.03;;
35602;SDS011;21725;50.836;4.368;2023-03-04T14:51:05;12.38;;;8.80;;
35602;SDS011;21725;50.836;4.368;2023-03-04T14:54:39;5.95;;;2.95;;
35602;SDS011;21725;50.836;4.368;2023-03-04T14:57:41;8.52;;;3.15;;
35602;SDS011;21725;50.836;4.368;2023-03-04T15:00:43;4.55;;;2.92;;
35602;SDS011;21725;50.836;4.368;2023-03-04T15:04:18;5.65;;;2.60;;
35602;SDS011;21725;50.836;4.368;2023-03-04T15:07:16;7.70;;;2.63;;
35602;SDS011;21725;50.836;4.368;2023-03-04T15:10:26;9.05;;;5.63;;
35602;SDS011;21725;50.836;4.368;2023-03-04T15:16:54;7.15;;;3.20;;
35602;SDS011;21725;50.836;4.368;2023-03-04T15:20:00;4.00;;;2.65;;
35602;SDS011;21725;50.836;4.368;2023-03-04T15:23:17;10.15;;;2.97;;
35602;SDS011;21725;50.836;4.368;2023-03-04T15:26:17;8.23;;;2.70;;
35602;SDS011;21725;50.836;4.368;2023-03-04T15:29:18;7.85;;;2.80;;
35602;SDS011;21725;50.836;4.368;2023-03-04T15:32:21;5.85;;;3.00;;
35602;SDS011;21725;50.836;4.368;2023-03-04T15:35:29;12.13;;;5.60;;
35602;SDS011;21725;50.836;4.368;2023-03-04T15:38:31;11.18;;;3.30;;
35602;SDS011;21725;50.836;4.368;2023-03-04T15:41:32;5.43;;;2.17;;
35602;SDS011;21725;50.836;4.368;2023-03-04T15:44:33;10.55;;;3.33;;
35602;SDS011;21725;50.836;4.368;2023-03-04T15:47:34;10.60;;;4.82;;
35602;SDS011;21725;50.836;4.368;2023-03-04T15:50:35;7.47;;;3.20;;
35602;SDS011;21725;50.836;4.368;2023-03-04T15:54:03;9.32;;;3.58;;
35602;SDS011;21725;50.836;4.368;2023-03-04T15:57:05;10.32;;;4.63;;
35602;SDS011;21725;50.836;4.368;2023-03-04T16:00:14;17.67;;;5.25;;
35602;SDS011;21725;50.836;4.368;2023-03-04T16:03:16;9.80;;;6.13;;
35602;SDS011;21725;50.836;4.368;2023-03-04T16:06:19;8.73;;;3.75;;
35602;SDS011;21725;50.836;4.368;2023-03-04T16:09:23;10.25;;;3.53;;
35602;SDS011;21725;50.836;4.368;2023-03-04T16:12:25;9.68;;;3.50;;
35602;SDS011;21725;50.836;4.368;2023-03-04T16:15:27;6.35;;;2.67;;
35602;SDS011;21725;50.836;4.368;2023-03-04T16:18:29;8.55;;;2.78;;
35602;SDS011;21725;50.836;4.368;2023-03-04T16:21:30;7.30;;;2.50;;
35602;SDS011;21725;50.836;4.368;2023-03-04T16:24:31;7.45;;;3.72;;
35602;SDS011;21725;50.836;4.368;2023-03-04T16:27:33;6.25;;;3.20;;
35602;SDS011;21725;50.836;4.368;2023-03-04T16:30:34;8.25;;;3.10;;
35602;SDS011;21725;50.836;4.368;2023-03-04T16:33:35;8.60;;;3.05;;
35602;SDS011;21725;50.836;4.368;2023-03-04T16:36:35;7.20;;;3.00;;
35602;SDS011;21725;50.836;4.368;2023-03-04T16:39:36;7.75;;;4.07;;
35602;SDS011;21725;50.836;4.368;2023-03-04T16:42:37;7.25;;;3.97;;
35602;SDS011;21725;50.836;4.368;2023-03-04T16:45:39;8.90;;;4.95;;
35602;SDS011;21725;50.836;4.368;2023-03-04T16:48:40;8.68;;;4.57;;
35602;SDS011;21725;50.836;4.368;2023-03-04T16:51:45;6.35;;;3.38;;
35602;SDS011;21725;50.836;4.368;2023-03-04T16:54:47;9.32;;;3.13;;
35602;SDS011;21725;50.836;4.368;2023-03-04T16:57:49;10.20;;;4.68;;
35602;SDS011;21725;50.836;4.368;2023-03-04T17:22:59;10.88;;;3.00;;
35602;SDS011;21725;50.836;4.368;2023-03-04T17:26:00;5.05;;;2.45;;
35602;SDS011;21725;50.836;4.368;2023-03-04T17:29:01;8.85;;;4.10;;
35602;SDS011;21725;50.836;4.368;2023-03-04T17:32:04;11.52;;;4.43;;
35602;SDS011;21725;50.836;4.368;2023-03-04T17:35:06;11.73;;;3.20;;
35602;SDS011;21725;50.836;4.368;2023-03-04T17:38:07;8.57;;;3.60;;
35602;SDS011;21725;50.836;4.368;2023-03-04T17:41:09;8.35;;;3.42;;
35602;SDS011;21725;50.836;4.368;2023-03-04T17:44:15;7.38;;;3.10;;
35602;SDS011;21725;50.836;4.368;2023-03-04T17:47:15;5.93;;;2.38;;
35602;SDS011;21725;50.836;4.368;2023-03-04T17:50:16;5.53;;;2.85;;
35602;SDS011;21725;50.836;4.368;2023-03-04T17:53:17;8.38;;;2.40;;
35602;SDS011;21725;50.836;4.368;2023-03-04T17:56:18;7.15;;;2.67;;
35602;SDS011;21725;50.836;4.368;2023-03-04T17:59:19;8.98;;;2.33;;
35602;SDS011;21725;50.836;4.368;2023-03-04T18:02:20;6.97;;;3.28;;
35602;SDS011;21725;50.836;4.368;2023-03-04T18:05:21;8.35;;;3.50;;
35602;SDS011;21725;50.836;4.368;2023-03-04T18:08:22;13.25;;;3.53;;
35602;SDS011;21725;50.836;4.368;2023-03-04T18:11:23;8.75;;;4.32;;
35602;SDS011;21725;50.836;4.368;2023-03-04T18:14:25;10.35;;;3.75;;
35602;SDS011;21725;50.836;4.368;2023-03-04T18:17:26;8.45;;;3.03;;
35602;SDS011;21725;50.836;4.368;2023-03-04T18:20:27;9.98;;;3.53;;
35602;SDS011;21725;50.836;4.368;2023-03-04T18:23:31;10.75;;;4.35;;
35602;SDS011;21725;50.836;4.368;2023-03-04T18:26:32;24.02;;;5.78;;
35602;SDS011;21725;50.836;4.368;2023-03-04T18:29:33;6.82;;;3.22;;
35602;SDS011;21725;50.836;4.368;2023-03-04T18:32:33;8.55;;;2.83;;
35602;SDS011;21725;50.836;4.368;2023-03-04T18:35:34;9.20;;;4.28;;
35602;SDS011;21725;50.836;4.368;2023-03-04T18:38:35;12.45;;;3.40;;
35602;SDS011;21725;50.836;4.368;2023-03-04T18:41:36;10.68;;;5.47;;
35602;SDS011;21725;50.836;4.368;2023-03-04T18:44:37;14.80;;;4.50;;
35602;SDS011;21725;50.836;4.368;2023-03-04T18:47:39;15.80;;;5.28;;
35602;SDS011;21725;50.836;4.368;2023-03-04T18:50:40;15.43;;;3.63;;
35602;SDS011;21725;50.836;4.368;2023-03-04T18:53:42;11.93;;;3.58;;
35602;SDS011;21725;50.836;4.368;2023-03-04T18:56:44;7.53;;;3.30;;
35602;SDS011;21725;50.836;4.368;2023-03-04T18:59:54;13.68;;;3.75;;
35602;SDS011;21725;50.836;4.368;2023-03-04T19:10:46;16.27;;;4.65;;
35602;SDS011;21725;50.836;4.368;2023-03-04T19:13:46;11.50;;;3.90;;
35602;SDS011;21725;50.836;4.368;2023-03-04T19:16:47;7.70;;;2.78;;
35602;SDS011;21725;50.836;4.368;2023-03-04T19:19:48;15.98;;;3.90;;
35602;SDS011;21725;50.836;4.368;2023-03-04T19:22:49;8.13;;;3.53;;
35602;SDS011;21725;50.836;4.368;2023-03-04T19:25:50;11.13;;;4.00;;
35602;SDS011;21725;50.836;4.368;2023-03-04T19:28:50;12.45;;;4.75;;
35602;SDS011;21725;50.836;4.368;2023-03-04T19:31:51;8.50;;;3.10;;
35602;SDS011;21725;50.836;4.368;2023-03-04T19:34:52;13.15;;;5.35;;
35602;SDS011;21725;50.836;4.368;2023-03-04T19:37:52;11.98;;;3.25;;
35602;SDS011;21725;50.836;4.368;2023-03-04T19:40:53;12.38;;;4.30;;
35602;SDS011;21725;50.836;4.368;2023-03-04T19:43:54;14.48;;;4.05;;
35602;SDS011;21725;50.836;4.368;2023-03-04T19:46:55;6.50;;;3.15;;
35602;SDS011;21725;50.836;4.368;2023-03-04T19:49:57;6.70;;;3.08;;
35602;SDS011;21725;50.836;4.368;2023-03-04T19:52:57;15.32;;;4.90;;
35602;SDS011;21725;50.836;4.368;2023-03-04T19:55:58;14.77;;;3.47;;
35602;SDS011;21725;50.836;4.368;2023-03-04T19:58:59;11.18;;;3.80;;
35602;SDS011;21725;50.836;4.368;2023-03-04T20:02:01;10.20;;;4.03;;
35602;SDS011;21725;50.836;4.368;2023-03-04T20:05:02;10.48;;;2.95;;
35602;SDS011;21725;50.836;4.368;2023-03-04T20:08:04;15.25;;;4.03;;
35602;SDS011;21725;50.836;4.368;2023-03-04T20:11:05;21.10;;;4.45;;
35602;SDS011;21725;50.836;4.368;2023-03-04T20:14:07;14.10;;;3.28;;
35602;SDS011;21725;50.836;4.368;2023-03-04T20:17:08;13.73;;;3.90;;
35602;SDS011;21725;50.836;4.368;2023-03-04T20:20:09;14.07;;;4.78;;
35602;SDS011;21725;50.836;4.368;2023-03-04T20:23:11;8.38;;;3.40;;
35602;SDS011;21725;50.836;4.368;2023-03-04T20:26:12;10.38;;;3.78;;
35602;SDS011;21725;50.836;4.368;2023-03-04T20:29:13;11.30;;;3.90;;
35602;SDS011;21725;50.836;4.368;2023-03-04T20:32:16;7.90;;;3.03;;
35602;SDS011;21725;50.836;4.368;2023-03-04T20:35:17;13.07;;;3.53;;
35602;SDS011;21725;50.836;4.368;2023-03-04T20:38:17;10.40;;;3.67;;
35602;SDS011;21725;50.836;4.368;2023-03-04T20:41:18;8.75;;;3.72;;
35602;SDS011;21725;50.836;4.368;2023-03-04T20:44:19;12.75;;;4.35;;
35602;SDS011;21725;50.836;4.368;2023-03-04T20:47:20;14.65;;;5.10;;